»·PEaware :: N527JC L71-1G4

N527JC :: L71-1G4

FLIGHT INFORMATION

Flight Status: Arrived
Operator: Privately registered:
United States
More flights under this callsign
Pilot: Zachary B. (2432)
Aircraft: GULFSTREAM G-1159C GULFSTREAM 4
(GLF4)
More flights by this aircraft type
Origin: L71 California City Mun
United States
Destination: 1G4 Grand Canyon West
United States
More flights between these airports :: More routes between these airports
Route: +L711 LHS PMD J6 HEC J64 PGS
File this flight plan on PilotEdge
Remarks: P / U IFR AT LHS
Altitude:
(Current/Filed)
35,000ft
Speed:
(Current/Filed)
430kts
Departed: 18-Jun-18 05:07 PM
Arrived: 18-Jun-18 05:56 PM
Distance/Time
Traveled:
211nm/0:49
Distance/Time
To Go:
Arrived

Flight Plot

Page will automatically refresh every two minutes.

Flight plan parsing failed; only flown route is shown


Map Options




Map Legend


Flown Route
Filed Route
Departure Airport
Arrival Airport
Navaid (VOR, NDB)
Fix

Horizontal Profiles

Position Reports

Time Latitude Longitude Heading Altitude Ground
Speed
18-Jun-18 17:06 35.153243 -118.007263 255 2432ft 0kts
18-Jun-18 17:07 35.152907 -118.008843 255 2432ft 74kts
18-Jun-18 17:08 35.152907 -118.008843 255 2432ft 74kts
18-Jun-18 17:09 35.149389 -118.024967 256 2594ft 212kts
18-Jun-18 17:10 35.121869 -118.101845 229 6249ft 272kts
18-Jun-18 17:11 35.070203 -118.168148 226 8317ft 264kts
18-Jun-18 17:12 35.013408 -118.231591 221 10092ft 270kts
18-Jun-18 17:13 34.957941 -118.289923 222 10809ft 244kts
18-Jun-18 17:14 34.896710 -118.354141 222 12489ft 378kts
18-Jun-18 17:15 34.817692 -118.436650 223 14839ft 381kts
18-Jun-18 17:16 34.738324 -118.517532 211 16435ft 380kts
18-Jun-18 17:17 34.642363 -118.476978 117 16900ft 421kts
18-Jun-18 17:18 34.654081 -118.339005 77 16988ft 434kts
18-Jun-18 17:19 34.662946 -118.192399 109 16983ft 449kts
18-Jun-18 17:20 34.635231 -118.049137 85 16987ft 424kts
18-Jun-18 17:21 34.647965 -117.913073 80 16964ft 390kts
18-Jun-18 17:22 34.662583 -117.777649 80 19033ft 428kts
18-Jun-18 17:23 34.678284 -117.631077 80 21988ft 443kts
18-Jun-18 17:24 34.694361 -117.478087 80 23019ft 473kts
18-Jun-18 17:25 34.710716 -117.323157 81 23008ft 464kts
18-Jun-18 17:26 34.726817 -117.166894 80 29681ft 457kts
18-Jun-18 17:27 34.747315 -117.019854 72 34827ft 423kts
18-Jun-18 17:28 34.758399 -116.857687 81 34965ft 536kts
18-Jun-18 17:29 34.775971 -116.678641 80 34955ft 544kts
18-Jun-18 17:30 34.793942 -116.495128 79 34947ft 546kts
18-Jun-18 17:31 34.839216 -116.322179 66 34956ft 541kts
18-Jun-18 17:32 34.890226 -116.150754 66 35000ft 542kts
18-Jun-18 17:33 34.941264 -115.978373 66 34996ft 548kts
18-Jun-18 17:34 34.992498 -115.803201 66 34996ft 554kts
18-Jun-18 17:35 35.044143 -115.625398 66 34995ft 561kts
18-Jun-18 17:36 35.095843 -115.446341 66 34917ft 561kts
18-Jun-18 17:37 35.146401 -115.270123 67 34881ft 561kts
18-Jun-18 17:38 35.197620 -115.090420 66 34853ft 559kts
18-Jun-18 17:39 35.246760 -114.916762 66 34841ft 503kts
18-Jun-18 17:40 35.289063 -114.766535 65 34702ft 444kts
18-Jun-18 17:41 35.336878 -114.613672 64 30112ft 515kts
18-Jun-18 17:42 35.387956 -114.449978 72 25930ft 519kts
18-Jun-18 17:43 35.425750 -114.287591 77 23763ft 463kts
18-Jun-18 17:44 35.461010 -114.147798 73 23963ft 412kts
18-Jun-18 17:45 35.498777 -114.009599 72 23301ft 444kts
18-Jun-18 17:46 35.542256 -113.863289 70 18614ft 466kts
18-Jun-18 17:47 35.592872 -113.725601 51 13858ft 386kts
18-Jun-18 17:48 35.672567 -113.689432 346 8420ft 251kts
18-Jun-18 17:49 35.728839 -113.717035 324 9106ft 225kts
18-Jun-18 17:50 35.784521 -113.754962 331 9003ft 227kts
18-Jun-18 17:51 35.836413 -113.793226 308 8809ft 211kts
18-Jun-18 17:52 35.877654 -113.843295 328 8461ft 214kts
18-Jun-18 17:53 35.935920 -113.853912 0 8112ft 219kts
18-Jun-18 17:54 35.995950 -113.852825 358 6999ft 216kts
18-Jun-18 17:55 36.010887 -113.811652 159 6223ft 142kts
18-Jun-18 17:56 35.980159 -113.817675 226 4825ft 16kts

Navigation Log

Ident Type
Flight plan parsing failed, navigation log unavailable